Time;durP1;ratioP1;P1;durP2;ratioP2;P2;SDS_P1;SDS_P2;PMS_P1;PMS_P2;Temp;Humidity;BMP_temperature;BMP_pressure;BME280_temperature;BME280_humidity;BME280_pressure;Samples;Min_cycle;Max_cycle;Signal;HPM_P1;HPM_P2
2022/04/14 00:01:41;;;;;;;26.90;25.20;;;13.20;77.60;;;;;;5073114;28;20489;-76
2022/04/14 00:04:08;;;;;;;26.70;25.10;;;13.30;77.50;;;;;;5073181;28;20502;-74
2022/04/14 00:06:35;;;;;;;28.57;26.60;;;13.20;77.30;;;;;;5073002;28;20461;-74
2022/04/14 00:09:02;;;;;;;28.00;26.30;;;13.20;77.80;;;;;;5072926;28;20450;-74
2022/04/14 00:11:28;;;;;;;29.97;26.90;;;13.10;77.70;;;;;;5072515;28;20800;-74
2022/04/14 00:13:57;;;;;;;28.87;26.83;;;13.10;78.00;;;;;;5072652;28;20848;-74
2022/04/14 00:16:24;;;;;;;27.40;25.30;;;13.10;78.20;;;;;;5072611;28;20459;-74
2022/04/14 00:18:51;;;;;;;27.73;26.13;;;13.00;78.30;;;;;;5072588;28;20546;-74
2022/04/14 00:21:18;;;;;;;28.07;26.10;;;13.00;78.30;;;;;;5072157;28;20475;-74
2022/04/14 00:23:45;;;;;;;28.10;26.20;;;13.00;78.30;;;;;;5072924;28;20977;-74
2022/04/14 00:26:12;;;;;;;27.80;25.70;;;13.00;78.80;;;;;;5072664;28;20454;-74
2022/04/14 00:28:39;;;;;;;26.97;25.13;;;12.90;79.00;;;;;;5072687;28;20454;-74
2022/04/14 00:31:07;;;;;;;27.13;25.53;;;12.90;79.30;;;;;;5071974;28;20456;-74
2022/04/14 00:33:34;;;;;;;28.17;26.13;;;12.90;79.80;;;;;;5072638;28;20544;-74
2022/04/14 00:36:01;;;;;;;26.13;24.50;;;12.90;79.10;;;;;;5071920;28;20473;-74
2022/04/14 00:38:28;;;;;;;26.63;24.93;;;12.90;78.80;;;;;;5071806;28;20867;-74
2022/04/14 00:40:55;;;;;;;27.17;25.30;;;12.90;78.30;;;;;;5071254;28;20478;-74
2022/04/14 00:43:30;;;;;;;27.40;25.43;;;12.80;78.40;;;;;;5071781;28;20517;-74
2022/04/14 00:45:58;;;;;;;27.17;25.57;;;12.80;78.20;;;;;;5071615;28;20453;-74
2022/04/14 00:48:26;;;;;;;26.90;25.20;;;12.80;78.20;;;;;;5071615;28;20495;-74
2022/04/14 00:50:53;;;;;;;28.10;26.20;;;12.80;78.00;;;;;;5070963;28;20526;-74
2022/04/14 00:53:21;;;;;;;25.83;24.23;;;12.70;78.30;;;;;;5071736;28;20502;-74
2022/04/14 00:55:48;;;;;;;26.40;24.40;;;12.60;78.90;;;;;;5071526;28;20458;-74
2022/04/14 00:58:15;;;;;;;26.37;24.87;;;12.60;79.20;;;;;;5071486;28;20963;-74
2022/04/14 01:00:42;;;;;;;27.23;25.23;;;12.60;79.20;;;;;;5070891;28;20493;-74
2022/04/14 01:03:10;;;;;;;27.00;25.30;;;12.70;78.90;;;;;;5071617;28;20474;-74
2022/04/14 01:05:40;;;;;;;27.00;24.90;;;12.60;79.00;;;;;;5071285;28;20450;-74
2022/04/14 01:08:07;;;;;;;26.93;25.13;;;12.60;79.20;;;;;;5071108;28;20944;-74
2022/04/14 01:10:35;;;;;;;26.93;25.00;;;12.50;79.30;;;;;;5070703;28;20541;-74
2022/04/14 01:13:02;;;;;;;28.07;26.27;;;12.50;79.70;;;;;;5070866;28;20875;-74
2022/04/14 01:15:29;;;;;;;27.83;25.73;;;12.40;79.90;;;;;;5071213;28;20498;-74
2022/04/14 01:17:56;;;;;;;27.30;25.50;;;12.30;80.20;;;;;;5070882;28;20454;-74
2022/04/14 01:20:23;;;;;;;26.80;25.20;;;12.30;80.60;;;;;;5070654;28;20482;-74
2022/04/14 01:22:56;;;;;;;27.43;25.50;;;12.30;80.70;;;;;;5071331;28;20510;-74
2022/04/14 01:25:25;;;;;;;27.67;25.77;;;12.30;80.50;;;;;;5071232;28;20457;-74
2022/04/14 01:27:52;;;;;;;27.07;25.07;;;12.40;80.20;;;;;;5071083;28;20454;-74
2022/04/14 01:30:19;;;;;;;28.00;26.30;;;12.30;80.20;;;;;;5074052;28;20537;-74
2022/04/14 01:32:46;;;;;;;27.47;25.63;;;12.30;80.60;;;;;;5074573;28;21046;-74
2022/04/14 01:35:13;;;;;;;28.50;26.33;;;12.20;81.40;;;;;;5036251;28;1111157;-74
2022/04/14 01:37:41;;;;;;;28.20;26.53;;;12.10;81.20;;;;;;5075865;28;20283;-74
2022/04/14 01:40:09;;;;;;;28.20;26.50;;;12.10;81.40;;;;;;5075148;28;20537;-74
2022/04/14 01:42:37;;;;;;;27.50;25.60;;;12.10;81.40;;;;;;5075859;28;20574;-74
2022/04/14 01:45:05;;;;;;;28.67;26.77;;;12.10;81.20;;;;;;5075764;28;20454;-74
2022/04/14 01:47:32;;;;;;;27.33;25.73;;;12.10;81.20;;;;;;5075739;28;21023;-74
2022/04/14 01:49:59;;;;;;;27.23;25.50;;;12.00;81.30;;;;;;5075088;28;20447;-74
2022/04/14 01:52:26;;;;;;;28.03;26.00;;;12.00;81.40;;;;;;5075552;28;20541;-74
2022/04/14 01:54:52;;;;;;;27.90;25.80;;;12.00;81.60;;;;;;5075533;28;20482;-74
2022/04/14 01:57:19;;;;;;;28.80;26.90;;;12.00;81.80;;;;;;5075488;28;20616;-74
2022/04/14 01:59:48;;;;;;;28.43;26.50;;;12.00;81.80;;;;;;5075172;28;20477;-74
2022/04/14 02:02:15;;;;;;;28.87;26.80;;;12.00;81.70;;;;;;5075308;28;20521;-74
2022/04/14 02:04:43;;;;;;;27.60;25.80;;;12.00;81.50;;;;;;5075469;28;20451;-74
2022/04/14 02:07:10;;;;;;;26.50;24.90;;;12.00;81.50;;;;;;5075203;28;20451;-75
2022/04/14 02:09:37;;;;;;;26.60;24.70;;;12.00;81.40;;;;;;5074607;28;20940;-74
2022/04/14 02:12:05;;;;;;;27.63;25.87;;;12.00;81.30;;;;;;5074879;28;20832;-74
2022/04/14 02:14:32;;;;;;;27.37;25.33;;;12.00;81.10;;;;;;5075248;28;20561;-74
2022/04/14 02:17:00;;;;;;;27.23;25.60;;;12.00;81.20;;;;;;5075090;28;20450;-74
2022/04/14 02:19:27;;;;;;;26.13;24.63;;;11.90;81.30;;;;;;5074382;28;20498;-74
2022/04/14 02:21:54;;;;;;;27.47;25.63;;;11.90;81.50;;;;;;5074931;28;20489;-76
2022/04/14 02:24:22;;;;;;;27.77;26.17;;;12.00;81.10;;;;;;5074889;28;20975;-74
2022/04/14 02:26:49;;;;;;;27.40;25.70;;;12.00;81.00;;;;;;5075154;28;20458;-75
2022/04/14 02:29:16;;;;;;;25.90;24.30;;;11.80;81.50;;;;;;5074376;28;20541;-74
2022/04/14 02:31:43;;;;;;;26.77;24.97;;;11.80;81.60;;;;;;5074975;28;20474;-74
2022/04/14 02:34:11;;;;;;;27.37;25.67;;;11.80;81.80;;;;;;5074802;28;20990;-74
2022/04/14 02:36:38;;;;;;;27.20;25.30;;;11.80;82.00;;;;;;5074922;28;20473;-75
2022/04/14 02:39:05;;;;;;;27.00;24.90;;;11.80;81.70;;;;;;5074361;28;20477;-74
2022/04/14 02:41:32;;;;;;;25.30;23.77;;;11.70;81.80;;;;;;5074465;28;20527;-76
2022/04/14 02:43:59;;;;;;;26.03;24.10;;;11.70;82.00;;;;;;5074553;28;20831;-73
2022/04/14 02:46:26;;;;;;;26.27;24.47;;;11.70;82.10;;;;;;5074809;28;20888;-74
2022/04/14 02:48:53;;;;;;;25.87;24.33;;;11.60;82.20;;;;;;5074502;28;20465;-74
2022/04/14 02:51:22;;;;;;;26.80;24.80;;;11.60;82.40;;;;;;5074306;28;20450;-74
2022/04/14 02:53:48;;;;;;;27.80;25.80;;;11.70;82.70;;;;;;5074706;28;20900;-74
2022/04/14 02:56:15;;;;;;;27.93;26.20;;;11.70;82.70;;;;;;5074421;28;20632;-74
2022/04/14 02:58:42;;;;;;;27.53;25.53;;;11.70;82.50;;;;;;5074669;28;20545;-74
2022/04/14 03:01:09;;;;;;;26.33;24.73;;;11.70;82.50;;;;;;5074048;28;20515;-74
2022/04/14 03:03:36;;;;;;;27.53;25.50;;;11.60;82.50;;;;;;5074503;28;20466;-74
2022/04/14 03:06:03;;;;;;;26.80;25.30;;;11.60;82.80;;;;;;5074667;28;20511;-74
2022/04/14 03:08:31;;;;;;;26.40;24.77;;;11.60;82.80;;;;;;5074029;28;20546;-76
2022/04/14 03:10:58;;;;;;;26.33;24.63;;;11.60;82.50;;;;;;5073664;28;20451;-74
2022/04/14 03:13:25;;;;;;;27.03;25.20;;;11.60;82.50;;;;;;5073795;28;20478;-73
2022/04/14 03:15:52;;;;;;;26.83;25.03;;;11.60;82.80;;;;;;5074134;28;20533;-74
2022/04/14 03:18:19;;;;;;;26.17;24.13;;;11.60;82.90;;;;;;5074296;28;20538;-74
2022/04/14 03:20:46;;;;;;;26.40;24.40;;;11.60;83.10;;;;;;5073612;28;20454;-74
2022/04/14 03:23:13;;;;;;;28.00;25.50;;;11.60;83.10;;;;;;5073848;28;20482;-74
2022/04/14 03:25:41;;;;;;;26.43;24.43;;;11.60;83.10;;;;;;5074232;28;21031;-75
2022/04/14 03:28:08;;;;;;;25.87;24.17;;;11.60;83.40;;;;;;5074004;28;20451;-74
2022/04/14 03:30:35;;;;;;;26.13;24.00;;;11.60;83.30;;;;;;5072945;28;20459;-74
2022/04/14 03:33:02;;;;;;;26.53;24.90;;;11.60;83.20;;;;;;5073590;28;20788;-76
2022/04/14 03:35:29;;;;;;;29.50;27.10;;;11.60;83.20;;;;;;5073708;28;20489;-74
2022/04/14 03:37:56;;;;;;;28.30;26.23;;;11.60;83.50;;;;;;5073462;28;20511;-74
2022/04/14 03:40:23;;;;;;;27.90;26.00;;;11.50;83.50;;;;;;5072915;28;20519;-74
2022/04/14 03:42:51;;;;;;;26.17;24.37;;;11.50;83.70;;;;;;5073175;28;20479;-74
2022/04/14 03:45:18;;;;;;;28.40;26.60;;;11.50;83.60;;;;;;5073249;28;20537;-74
2022/04/14 03:47:44;;;;;;;28.33;26.50;;;11.40;83.80;;;;;;5073466;28;20454;-74
2022/04/14 03:50:11;;;;;;;27.33;25.27;;;11.40;84.30;;;;;;5072851;28;20541;-74
2022/04/14 03:52:38;;;;;;;26.53;24.90;;;11.40;84.50;;;;;;5072263;28;20472;-74
2022/04/14 03:55:06;;;;;;;27.63;25.60;;;11.50;84.10;;;;;;5073287;28;20809;-74
2022/04/14 03:57:33;;;;;;;28.70;26.20;;;11.50;84.30;;;;;;5073049;28;20454;-74
2022/04/14 04:00:01;;;;;;;28.00;25.63;;;11.50;84.70;;;;;;5072643;28;20541;-74
2022/04/14 04:02:28;;;;;;;27.20;25.47;;;11.40;84.90;;;;;;5072917;28;20478;-74
2022/04/14 04:04:55;;;;;;;29.77;27.70;;;11.40;85.20;;;;;;5073202;28;20876;-74
2022/04/14 04:07:22;;;;;;;27.47;25.57;;;11.40;85.80;;;;;;5073277;28;20806;-74
2022/04/14 04:09:50;;;;;;;31.43;29.47;;;11.40;85.10;;;;;;5072516;28;20473;-76
2022/04/14 04:12:19;;;;;;;28.30;26.00;;;11.40;85.00;;;;;;5072490;28;20495;-75
2022/04/14 04:14:46;;;;;;;29.00;26.90;;;11.40;85.00;;;;;;5073290;28;20450;-75
2022/04/14 04:17:15;;;;;;;30.37;28.07;;;11.30;85.20;;;;;;5072713;28;20462;-75
2022/04/14 04:19:43;;;;;;;28.63;26.60;;;11.30;85.70;;;;;;5072526;28;20537;-73
2022/04/14 04:22:10;;;;;;;27.07;25.03;;;11.40;85.70;;;;;;5072985;28;20510;-75
2022/04/14 04:24:37;;;;;;;28.67;26.43;;;11.40;85.50;;;;;;5072852;28;20457;-75
2022/04/14 04:27:05;;;;;;;28.50;26.40;;;11.40;85.60;;;;;;5072563;28;21046;-76
2022/04/14 04:29:32;;;;;;;30.03;27.60;;;11.40;85.50;;;;;;5072206;28;20447;-75
2022/04/14 04:31:59;;;;;;;29.17;26.73;;;11.30;85.80;;;;;;5072662;28;20443;-75
2022/04/14 04:34:28;;;;;;;29.10;27.00;;;11.30;85.90;;;;;;5072457;28;20474;-75
2022/04/14 04:36:55;;;;;;;29.13;27.13;;;11.40;86.30;;;;;;5072482;28;20468;-75
2022/04/14 04:39:22;;;;;;;32.60;30.40;;;11.30;85.80;;;;;;5071821;28;20886;-75
2022/04/14 04:41:48;;;;;;;30.67;27.87;;;11.30;86.10;;;;;;5072202;28;20459;-75
2022/04/14 04:44:15;;;;;;;30.00;27.60;;;11.30;86.20;;;;;;5072501;28;20470;-75
2022/04/14 04:46:42;;;;;;;32.70;29.83;;;11.30;86.20;;;;;;5072388;28;20454;-75
2022/04/14 04:49:09;;;;;;;29.17;27.17;;;11.40;86.70;;;;;;5071855;28;20458;-75
2022/04/14 04:51:37;;;;;;;29.73;27.53;;;11.40;86.60;;;;;;5072343;28;20537;-75
2022/04/14 04:54:04;;;;;;;29.70;27.60;;;11.50;86.40;;;;;;5072329;28;20485;-75
2022/04/14 04:56:31;;;;;;;29.77;27.40;;;11.50;85.90;;;;;;5072230;28;20482;-75
2022/04/14 04:58:58;;;;;;;31.57;28.90;;;11.50;86.10;;;;;;5072325;28;20454;-75
2022/04/14 05:01:25;;;;;;;32.07;29.37;;;11.50;86.50;;;;;;5072019;28;20494;-75
2022/04/14 05:03:52;;;;;;;31.00;28.80;;;11.50;86.70;;;;;;5072178;28;21017;-75
2022/04/14 05:06:19;;;;;;;30.10;28.00;;;11.60;86.30;;;;;;5072142;28;20464;-74
2022/04/14 05:08:47;;;;;;;33.10;30.33;;;11.60;86.00;;;;;;5072085;28;20794;-75
2022/04/14 05:11:15;;;;;;;32.60;30.13;;;11.70;85.90;;;;;;5071462;28;20883;-75
2022/04/14 05:13:42;;;;;;;32.67;30.37;;;11.80;85.90;;;;;;5071623;28;20482;-75
2022/04/14 05:16:09;;;;;;;32.73;29.90;;;11.90;85.80;;;;;;5072134;28;20447;-75
2022/04/14 05:18:36;;;;;;;33.07;30.73;;;12.00;85.50;;;;;;5072018;28;20455;-75
2022/04/14 05:21:03;;;;;;;35.70;32.70;;;12.00;85.50;;;;;;5071578;28;20458;-75
2022/04/14 05:23:30;;;;;;;31.90;29.60;;;12.00;85.40;;;;;;5072051;28;20505;-75
2022/04/14 05:25:58;;;;;;;35.60;32.53;;;12.10;85.20;;;;;;5072030;28;20545;-75
2022/04/14 05:28:25;;;;;;;33.20;30.53;;;12.10;85.10;;;;;;5072258;28;20493;-75
2022/04/14 05:30:52;;;;;;;35.57;32.57;;;12.30;84.80;;;;;;5071654;28;20924;-75
2022/04/14 05:33:19;;;;;;;35.53;32.87;;;12.40;84.70;;;;;;5072088;28;20478;-75
2022/04/14 05:35:46;;;;;;;35.00;32.30;;;12.50;84.50;;;;;;5071864;28;20458;-75
2022/04/14 05:38:14;;;;;;;35.13;31.87;;;12.50;84.40;;;;;;5072202;28;20458;-75
2022/04/14 05:40:43;;;;;;;35.90;32.90;;;12.60;84.10;;;;;;5071485;28;20825;-75
2022/04/14 05:43:16;;;;;;;37.93;34.80;;;12.70;84.10;;;;;;5071736;28;20482;-75
2022/04/14 05:45:44;;;;;;;37.17;34.17;;;12.80;84.10;;;;;;5071847;28;20465;-75
2022/04/14 05:48:13;;;;;;;42.10;38.50;;;12.90;84.10;;;;;;5071836;28;20883;-75
2022/04/14 05:50:40;;;;;;;38.47;35.07;;;13.00;84.20;;;;;;5071347;28;20462;-75
2022/04/14 05:53:07;;;;;;;40.93;37.00;;;13.00;84.40;;;;;;5071888;28;20466;-75
2022/04/14 05:55:35;;;;;;;38.70;35.57;;;13.10;84.00;;;;;;5071574;28;20457;-75
2022/04/14 05:58:03;;;;;;;38.63;35.40;;;13.30;83.60;;;;;;5072242;28;20477;-75
2022/04/14 06:00:31;;;;;;;40.83;37.47;;;13.30;83.40;;;;;;5071028;28;20539;-75
2022/04/14 06:02:59;;;;;;;43.13;39.70;;;13.30;83.70;;;;;;5071505;28;20489;-75
2022/04/14 06:05:26;;;;;;;41.47;38.17;;;13.40;83.90;;;;;;5071377;28;20950;-75
2022/04/14 06:07:53;;;;;;;40.83;37.23;;;13.60;83.50;;;;;;5071633;28;20855;-75
2022/04/14 06:10:21;;;;;;;41.10;37.70;;;13.60;83.00;;;;;;5070873;28;20843;-75
2022/04/14 06:12:47;;;;;;;43.30;39.47;;;13.70;83.20;;;;;;5071324;28;20476;-75
2022/04/14 06:15:14;;;;;;;44.50;40.87;;;13.90;82.90;;;;;;5073530;28;20464;-75
2022/04/14 06:17:43;;;;;;;43.77;40.33;;;14.00;82.60;;;;;;5074940;28;20811;-75
2022/04/14 06:20:11;;;;;;;43.07;39.60;;;14.10;82.30;;;;;;5074527;28;20511;-76
2022/04/14 06:22:39;;;;;;;42.00;38.70;;;14.20;82.40;;;;;;5074904;28;20483;-75
2022/04/14 06:25:12;;;;;;;44.53;40.77;;;14.10;81.60;;;;;;5074970;28;20799;-75
2022/04/14 06:27:40;;;;;;;44.30;40.67;;;14.30;82.80;;;;;;5074832;28;20896;-75
2022/04/14 06:30:08;;;;;;;48.30;43.87;;;14.50;82.00;;;;;;5074308;28;20450;-75
2022/04/14 06:32:35;;;;;;;48.90;45.00;;;14.60;81.40;;;;;;5074785;28;20481;-75
2022/04/14 06:35:04;;;;;;;49.13;44.93;;;14.80;81.40;;;;;;5074778;28;20541;-75
2022/04/14 06:37:31;;;;;;;50.03;45.27;;;14.90;81.30;;;;;;5074824;28;20447;-75
2022/04/14 06:39:57;;;;;;;49.03;44.63;;;15.10;81.00;;;;;;5074090;28;20450;-75
2022/04/14 06:42:24;;;;;;;49.27;45.27;;;15.20;80.90;;;;;;5074475;28;20541;-75
2022/04/14 06:44:53;;;;;;;50.27;45.87;;;15.20;81.10;;;;;;5074546;28;20451;-75
2022/04/14 06:47:21;;;;;;;51.40;46.73;;;15.30;80.40;;;;;;5074796;28;20457;-75
2022/04/14 06:49:48;;;;;;;48.87;44.27;;;15.40;80.70;;;;;;5073980;28;20481;-75
2022/04/14 06:52:17;;;;;;;52.43;47.70;;;15.40;80.50;;;;;;5074566;28;20454;-75
2022/04/14 06:54:44;;;;;;;48.67;44.47;;;15.60;80.30;;;;;;5074349;28;20534;-76
2022/04/14 06:57:11;;;;;;;47.27;43.27;;;15.70;79.80;;;;;;5074391;28;20999;-76
2022/04/14 06:59:38;;;;;;;47.87;44.07;;;15.70;79.40;;;;;;5073492;28;20451;-75
2022/04/14 07:02:05;;;;;;;49.93;45.47;;;15.80;79.20;;;;;;5074518;28;20458;-75
2022/04/14 07:04:33;;;;;;;47.40;43.30;;;15.90;78.90;;;;;;5074048;28;20486;-75
2022/04/14 07:07:00;;;;;;;47.37;43.40;;;16.00;78.70;;;;;;5074225;28;20454;-76
2022/04/14 07:09:31;;;;;;;47.00;42.80;;;16.00;78.80;;;;;;5073535;28;20454;-76
2022/04/14 07:11:59;;;;;;;45.37;41.73;;;16.10;78.10;;;;;;5073823;28;20496;-76
2022/04/14 07:14:27;;;;;;;45.40;41.47;;;16.30;77.60;;;;;;5074184;28;20459;-75
2022/04/14 07:16:54;;;;;;;48.73;44.33;;;16.50;77.00;;;;;;5074258;28;20474;-76
2022/04/14 07:19:20;;;;;;;50.07;45.97;;;16.60;76.60;;;;;;5073284;28;20929;-75
2022/04/14 07:21:48;;;;;;;46.93;42.53;;;16.60;76.30;;;;;;5073880;28;20461;-75
2022/04/14 07:24:14;;;;;;;45.90;42.20;;;16.50;76.80;;;;;;5073685;28;20991;-76
2022/04/14 07:26:43;;;;;;;46.63;42.50;;;16.30;77.50;;;;;;5072608;28;20819;-76
2022/04/14 07:29:09;;;;;;;47.30;43.43;;;16.10;78.20;;;;;;5073098;28;20533;-76
2022/04/14 07:31:36;;;;;;;47.33;43.43;;;16.20;78.40;;;;;;5073578;28;20451;-76
2022/04/14 07:34:05;;;;;;;45.63;41.77;;;16.40;77.50;;;;;;5073506;28;20466;-76
2022/04/14 07:36:32;;;;;;;45.73;42.00;;;16.40;77.50;;;;;;5073334;28;20462;-76
2022/04/14 07:38:58;;;;;;;44.80;41.17;;;16.70;76.70;;;;;;5073590;28;20458;-76
2022/04/14 07:41:26;;;;;;;44.07;40.47;;;16.80;76.00;;;;;;5072944;28;20451;-76
2022/04/14 07:43:55;;;;;;;47.33;43.53;;;16.80;76.40;;;;;;5073311;28;20911;-76
2022/04/14 07:46:22;;;;;;;46.17;42.27;;;17.00;75.80;;;;;;5073223;28;20460;-76
2022/04/14 07:48:49;;;;;;;44.47;40.67;;;17.20;75.10;;;;;;5073269;28;20564;-76
2022/04/14 07:51:16;;;;;;;46.27;42.70;;;17.20;74.90;;;;;;5072780;28;20553;-76
2022/04/14 07:53:42;;;;;;;45.80;41.97;;;17.30;74.10;;;;;;5073358;28;20524;-76
2022/04/14 07:56:09;;;;;;;47.40;43.77;;;17.20;74.60;;;;;;5073333;28;20541;-76
2022/04/14 07:58:38;;;;;;;45.83;42.13;;;17.20;74.90;;;;;;5073153;28;20867;-75
2022/04/14 08:01:06;;;;;;;45.07;41.27;;;17.30;74.80;;;;;;5072810;28;20490;-76
2022/04/14 08:03:36;;;;;;;46.93;43.03;;;17.40;74.60;;;;;;5073196;28;20525;-76
2022/04/14 08:06:03;;;;;;;45.70;41.67;;;17.40;74.20;;;;;;5072935;28;20457;-76
2022/04/14 08:08:30;;;;;;;44.50;41.10;;;17.50;74.20;;;;;;5072884;28;20541;-76
2022/04/14 08:11:01;;;;;;;45.77;42.17;;;17.70;73.50;;;;;;5072377;28;20452;-76
2022/04/14 08:13:30;;;;;;;45.13;41.67;;;17.70;73.30;;;;;;5072467;28;20486;-76
2022/04/14 08:16:01;;;;;;;46.47;42.20;;;17.30;74.10;;;;;;5072503;28;20454;-76
2022/04/14 08:18:29;;;;;;;46.20;42.40;;;17.30;74.80;;;;;;5072456;28;20450;-76
2022/04/14 08:20:58;;;;;;;46.50;42.70;;;17.30;74.60;;;;;;5072224;28;20805;-76
2022/04/14 08:23:25;;;;;;;46.47;42.70;;;17.40;74.20;;;;;;5072447;28;21051;-75
2022/04/14 08:25:52;;;;;;;45.20;41.13;;;17.50;73.80;;;;;;5072760;28;20455;-76
2022/04/14 08:28:19;;;;;;;45.23;41.40;;;17.60;73.60;;;;;;5072248;28;20465;-76
2022/04/14 08:30:46;;;;;;;46.90;43.37;;;17.60;73.40;;;;;;5072189;28;20461;-76
2022/04/14 08:33:16;;;;;;;44.73;41.13;;;17.70;73.30;;;;;;5072376;28;20475;-76
2022/04/14 08:35:44;;;;;;;44.30;40.70;;;17.80;72.70;;;;;;5072436;28;20551;-76
2022/04/14 08:38:11;;;;;;;44.93;41.00;;;17.80;72.80;;;;;;5072215;28;20562;-76
2022/04/14 08:40:40;;;;;;;45.97;42.27;;;17.80;72.90;;;;;;5071914;28;20456;-76
2022/04/14 08:43:08;;;;;;;44.90;41.60;;;18.00;72.50;;;;;;5072054;28;20475;-76
2022/04/14 08:45:37;;;;;;;43.73;40.13;;;18.20;71.80;;;;;;5072386;28;20451;-76
2022/04/14 08:48:06;;;;;;;46.50;42.80;;;18.30;71.40;;;;;;5072463;28;20536;-76
2022/04/14 08:50:33;;;;;;;46.20;42.60;;;18.30;71.30;;;;;;5071786;28;20903;-76
2022/04/14 08:53:05;;;;;;;45.93;41.93;;;18.00;72.30;;;;;;5072151;28;20553;-76
2022/04/14 08:55:32;;;;;;;45.20;41.40;;;18.10;72.00;;;;;;5072112;28;20535;-76
2022/04/14 08:58:01;;;;;;;45.43;41.40;;;18.20;71.90;;;;;;5072038;28;20452;-76
2022/04/14 09:00:28;;;;;;;45.90;42.00;;;18.20;71.90;;;;;;5071608;28;20446;-76
2022/04/14 09:02:57;;;;;;;44.77;40.77;;;18.30;71.60;;;;;;5071976;28;20478;-76
2022/04/14 09:05:24;;;;;;;43.00;39.80;;;18.50;71.00;;;;;;5072004;28;20891;-76
2022/04/14 09:07:52;;;;;;;45.53;41.90;;;18.60;70.30;;;;;;5072020;28;20454;-76
2022/04/14 09:10:20;;;;;;;45.47;41.47;;;18.50;70.30;;;;;;5071452;28;20461;-76
2022/04/14 09:12:48;;;;;;;43.80;40.60;;;18.40;70.80;;;;;;5071646;28;20479;-76
2022/04/14 09:15:16;;;;;;;44.63;41.03;;;18.60;70.60;;;;;;5071964;28;20482;-76
2022/04/14 09:17:43;;;;;;;43.93;40.93;;;18.70;70.20;;;;;;5071979;28;20548;-76
2022/04/14 09:20:34;;;;;;;44.27;41.07;;;18.90;69.00;;;;;;5071466;28;20454;-76
2022/04/14 09:23:11;;;;;;;44.17;40.63;;;19.00;69.10;;;;;;5071936;28;20879;-76
2022/04/14 09:25:39;;;;;;;50.00;45.80;;;19.00;68.90;;;;;;5071920;28;20890;-76
2022/04/14 09:28:10;;;;;;;44.50;41.10;;;19.10;68.50;;;;;;5071876;28;20478;-76
2022/04/14 09:30:37;;;;;;;43.63;40.20;;;18.90;68.80;;;;;;5071443;28;20465;-76
2022/04/14 09:33:04;;;;;;;42.43;39.20;;;19.00;68.30;;;;;;5071616;28;20504;-76
2022/04/14 09:35:32;;;;;;;47.33;43.10;;;19.00;68.40;;;;;;5071726;28;20466;-76
2022/04/14 09:38:04;;;;;;;42.90;39.50;;;18.90;68.70;;;;;;5071847;28;20457;-76
2022/04/14 09:40:33;;;;;;;43.13;39.47;;;18.70;68.60;;;;;;5071254;28;20453;-76
2022/04/14 09:43:02;;;;;;;45.87;42.67;;;18.70;68.90;;;;;;5071775;28;20485;-76
2022/04/14 09:45:30;;;;;;;44.60;41.03;;;18.90;68.20;;;;;;5071589;28;20984;-76
2022/04/14 09:48:03;;;;;;;45.27;41.20;;;19.10;68.60;;;;;;5071523;28;20457;-76
2022/04/14 09:50:34;;;;;;;44.77;41.30;;;19.30;68.40;;;;;;5073796;28;20531;-76
2022/04/14 09:53:05;;;;;;;46.30;42.70;;;19.30;68.20;;;;;;5075490;28;20474;-76
2022/04/14 09:55:32;;;;;;;46.87;42.63;;;19.40;68.10;;;;;;5075644;28;20442;-76
2022/04/14 09:58:09;;;;;;;43.03;39.67;;;19.40;68.00;;;;;;5075450;28;20461;-76
2022/04/14 10:00:44;;;;;;;44.77;41.00;;;19.50;67.80;;;;;;5074753;28;20450;-76
2022/04/14 10:03:13;;;;;;;46.87;42.97;;;19.60;66.10;;;;;;5075497;28;20548;-76
2022/04/14 10:05:40;;;;;;;43.47;40.17;;;19.50;66.50;;;;;;5075158;28;20987;-76
2022/04/14 10:08:08;;;;;;;45.50;41.80;;;19.60;66.80;;;;;;5075286;28;20457;-76
2022/04/14 10:10:37;;;;;;;46.07;42.47;;;19.70;67.70;;;;;;5074577;28;20940;-76
2022/04/14 10:13:05;;;;;;;44.07;40.60;;;19.90;67.00;;;;;;5074636;28;20481;-76
2022/04/14 10:15:35;;;;;;;45.23;41.77;;;20.10;66.70;;;;;;5075117;28;20459;-76
2022/04/14 10:18:07;;;;;;;46.10;42.50;;;19.90;66.80;;;;;;5075226;28;20477;-76
2022/04/14 10:20:35;;;;;;;45.90;42.27;;;20.00;66.60;;;;;;5074684;28;20465;-76
2022/04/14 10:23:03;;;;;;;47.57;43.77;;;20.00;66.70;;;;;;5074886;28;20474;-76
2022/04/14 10:25:30;;;;;;;47.10;43.20;;;19.90;67.00;;;;;;5074897;28;20517;-76
2022/04/14 10:27:59;;;;;;;44.93;41.43;;;20.10;66.80;;;;;;5074942;28;20500;-76
2022/04/14 10:30:26;;;;;;;45.17;41.57;;;20.10;65.90;;;;;;5074361;28;20458;-76
2022/04/14 10:32:56;;;;;;;44.10;40.60;;;19.90;65.40;;;;;;5074793;28;21058;-76
2022/04/14 10:35:25;;;;;;;39.97;37.03;;;19.90;66.10;;;;;;5074690;28;20484;-76
2022/04/14 10:37:57;;;;;;;45.37;41.83;;;20.00;65.20;;;;;;5074766;28;20454;-76
2022/04/14 10:40:24;;;;;;;43.37;40.17;;;20.20;65.20;;;;;;5074248;28;20876;-76
2022/04/14 10:42:54;;;;;;;42.63;39.53;;;20.20;65.00;;;;;;5074457;28;20480;-76
2022/04/14 10:45:23;;;;;;;44.07;40.43;;;20.30;65.00;;;;;;5074492;28;20482;-76
2022/04/14 10:47:56;;;;;;;44.83;41.37;;;20.30;64.10;;;;;;5074539;28;20451;-76
2022/04/14 10:50:25;;;;;;;45.80;41.83;;;20.20;64.20;;;;;;5074099;28;20446;-76
2022/04/14 10:53:03;;;;;;;44.63;40.97;;;20.10;64.50;;;;;;5074496;28;20987;-76
2022/04/14 10:55:42;;;;;;;43.73;40.17;;;20.20;64.50;;;;;;5074365;28;20446;-76
2022/04/14 10:58:46;;;;;;;43.60;40.30;;;20.30;64.20;;;;;;5074395;28;20442;-76
2022/04/14 11:01:14;;;;;;;43.10;40.00;;;20.20;65.00;;;;;;5073481;28;20500;-76
2022/04/14 11:03:52;;;;;;;43.67;40.03;;;20.00;65.30;;;;;;5074375;28;20999;-76
2022/04/14 11:06:52;;;;;;;44.77;41.00;;;20.10;65.50;;;;;;5074186;28;20454;-76
2022/04/14 11:09:50;;;;;;;43.37;39.87;;;20.20;65.30;;;;;;5051527;28;20578;-76
2022/04/14 11:12:19;;;;;;;43.80;39.97;;;20.40;64.20;;;;;;5051540;28;20509;-76
2022/04/14 11:14:51;;;;;;;45.33;41.77;;;20.50;64.00;;;;;;5066905;28;20475;-76
2022/04/14 11:17:52;;;;;;;43.60;40.07;;;20.60;64.20;;;;;;5073969;28;20458;-76
2022/04/14 11:20:23;;;;;;;44.37;40.70;;;20.50;64.00;;;;;;5073364;28;20454;-76
2022/04/14 11:23:04;;;;;;;44.47;40.67;;;20.50;63.70;;;;;;5074244;28;20478;-76
2022/04/14 11:25:49;;;;;;;43.93;40.60;;;20.20;64.70;;;;;;5073785;28;20484;-76
2022/04/14 11:28:18;;;;;;;47.07;42.97;;;20.30;64.90;;;;;;5073566;28;20935;-76
2022/04/14 11:30:46;;;;;;;44.50;40.87;;;20.30;65.00;;;;;;5073344;28;20981;-76
2022/04/14 11:33:14;;;;;;;45.47;42.10;;;20.10;65.40;;;;;;5073653;28;20466;-76
2022/04/14 11:35:46;;;;;;;42.10;38.50;;;20.20;64.80;;;;;;5073484;28;20553;-76
2022/04/14 11:38:46;;;;;;;42.90;39.17;;;20.40;63.80;;;;;;5073422;28;20809;-76
2022/04/14 11:41:32;;;;;;;43.90;40.40;;;20.60;63.00;;;;;;5072783;28;20454;-76
2022/04/14 11:44:01;;;;;;;42.20;38.50;;;20.90;62.40;;;;;;5073296;28;20481;-76
2022/04/14 11:46:28;;;;;;;41.83;38.53;;;20.90;61.90;;;;;;5073277;28;20457;-76
2022/04/14 11:48:55;;;;;;;45.33;41.60;;;21.00;61.30;;;;;;5073072;28;20792;-76
2022/04/14 11:51:23;;;;;;;43.97;40.57;;;20.70;62.70;;;;;;5072800;28;20450;-76
2022/04/14 11:53:53;;;;;;;42.80;39.50;;;20.70;63.00;;;;;;5073047;28;20479;-76
2022/04/14 11:56:20;;;;;;;45.17;41.67;;;20.90;62.40;;;;;;5073318;28;20443;-76
2022/04/14 11:58:48;;;;;;;45.40;41.90;;;21.10;62.30;;;;;;5072880;28;20819;-76
2022/04/14 12:01:15;;;;;;;44.30;40.77;;;21.00;62.20;;;;;;5072483;28;20461;-76
2022/04/14 12:03:43;;;;;;;42.37;39.07;;;20.90;62.50;;;;;;5073015;28;20466;-76
2022/04/14 12:06:12;;;;;;;43.07;39.87;;;21.00;62.70;;;;;;5073154;28;20474;-76
2022/04/14 12:08:41;;;;;;;45.50;41.80;;;21.10;61.90;;;;;;5072889;28;20952;-76
2022/04/14 12:11:12;;;;;;;43.33;40.03;;;21.30;61.50;;;;;;5072431;28;20812;-76
2022/04/14 12:13:39;;;;;;;43.47;40.37;;;21.20;61.90;;;;;;5071743;28;20483;-76
2022/04/14 12:16:08;;;;;;;46.77;43.10;;;21.50;61.20;;;;;;5072966;28;20508;-76
2022/04/14 12:18:35;;;;;;;45.90;42.43;;;21.60;61.00;;;;;;5072518;28;20454;-76
2022/04/14 12:21:04;;;;;;;44.10;40.70;;;21.70;61.30;;;;;;5072312;28;20451;-76
2022/04/14 12:23:32;;;;;;;45.13;41.47;;;21.70;61.50;;;;;;5072717;28;20474;-76
2022/04/14 12:26:00;;;;;;;46.93;43.03;;;21.80;61.20;;;;;;5072440;28;20506;-76
2022/04/14 12:28:27;;;;;;;46.57;43.20;;;21.80;61.10;;;;;;5072621;28;20944;-76
2022/04/14 12:30:54;;;;;;;48.13;44.50;;;21.60;61.80;;;;;;5072289;28;20453;-76
2022/04/14 12:33:28;;;;;;;50.43;46.73;;;21.80;61.30;;;;;;5072562;28;20466;-76